sensor_id;sensor_type;location;lat;lon;timestamp;P1;durP1;ratioP1;P2;durP2;ratioP2
50651;SDS011;66928;52.086;5.240;2023-03-08T03:43:23;14.5;;;11.6;;
50651;SDS011;66928;52.086;5.240;2023-03-08T05:00:53;47.0;;;24.4;;
50651;SDS011;66928;52.086;5.240;2023-03-08T05:41:07;47.3;;;29.7;;
50651;SDS011;66928;52.086;5.240;2023-03-08T06:34:14;38.6;;;28.6;;
50651;SDS011;66928;52.086;5.240;2023-03-08T06:35:58;47.4;;;31.5;;
50651;SDS011;66928;52.086;5.240;2023-03-08T06:37:35;42.7;;;30.9;;
50651;SDS011;66928;52.086;5.240;2023-03-08T06:39:11;42.9;;;31.2;;
50651;SDS011;66928;52.086;5.240;2023-03-08T06:42:24;41.8;;;31.2;;
50651;SDS011;66928;52.086;5.240;2023-03-08T06:44:00;43.9;;;31.9;;
50651;SDS011;66928;52.086;5.240;2023-03-08T06:45:36;42.5;;;30.8;;
50651;SDS011;66928;52.086;5.240;2023-03-08T06:48:49;48.0;;;33.71;;
50651;SDS011;66928;52.086;5.240;2023-03-08T06:50:26;48.1;;;32.6;;
50651;SDS011;66928;52.086;5.240;2023-03-08T06:52:03;44.5;;;30.7;;
50651;SDS011;66928;52.086;5.240;2023-03-08T06:55:16;45.7;;;31.0;;
50651;SDS011;66928;52.086;5.240;2023-03-08T06:56:52;45.6;;;32.5;;
50651;SDS011;66928;52.086;5.240;2023-03-08T06:58:28;45.6;;;32.4;;
50651;SDS011;66928;52.086;5.240;2023-03-08T07:00:06;45.4;;;31.8;;
50651;SDS011;66928;52.086;5.240;2023-03-08T07:03:20;41.3;;;30.7;;
50651;SDS011;66928;52.086;5.240;2023-03-08T07:04:56;46.9;;;33.0;;
50651;SDS011;66928;52.086;5.240;2023-03-08T07:06:32;43.2;;;31.0;;
50651;SDS011;66928;52.086;5.240;2023-03-08T07:09:44;41.9;;;31.0;;
50651;SDS011;66928;52.086;5.240;2023-03-08T07:11:20;39.31;;;30.3;;
50651;SDS011;66928;52.086;5.240;2023-03-08T07:12:56;36.31;;;28.6;;
50651;SDS011;66928;52.086;5.240;2023-03-08T07:16:10;40.71;;;30.9;;
50651;SDS011;66928;52.086;5.240;2023-03-08T07:17:47;41.2;;;31.4;;
50651;SDS011;66928;52.086;5.240;2023-03-08T07:19:25;37.0;;;29.2;;
50651;SDS011;66928;52.086;5.240;2023-03-08T07:21:01;39.6;;;29.9;;
50651;SDS011;66928;52.086;5.240;2023-03-08T07:24:15;39.31;;;29.8;;
50651;SDS011;66928;52.086;5.240;2023-03-08T07:25:52;40.4;;;30.1;;
50651;SDS011;66928;52.086;5.240;2023-03-08T07:27:28;39.4;;;30.8;;
50651;SDS011;66928;52.086;5.240;2023-03-08T07:30:44;37.9;;;29.1;;
50651;SDS011;66928;52.086;5.240;2023-03-08T07:32:21;41.4;;;31.6;;
50651;SDS011;66928;52.086;5.240;2023-03-08T07:33:57;40.5;;;31.2;;
50651;SDS011;66928;52.086;5.240;2023-03-08T07:37:10;40.71;;;30.6;;
50651;SDS011;66928;52.086;5.240;2023-03-08T07:38:47;39.5;;;29.3;;
50651;SDS011;66928;52.086;5.240;2023-03-08T07:40:24;38.21;;;30.1;;
50651;SDS011;66928;52.086;5.240;2023-03-08T07:42:00;39.1;;;30.0;;
50651;SDS011;66928;52.086;5.240;2023-03-08T07:45:12;37.71;;;30.0;;
50651;SDS011;66928;52.086;5.240;2023-03-08T07:46:49;42.9;;;31.5;;
50651;SDS011;66928;52.086;5.240;2023-03-08T07:48:26;40.0;;;31.2;;
50651;SDS011;66928;52.086;5.240;2023-03-08T07:51:38;40.31;;;30.5;;
50651;SDS011;66928;52.086;5.240;2023-03-08T07:53:14;41.2;;;31.1;;
50651;SDS011;66928;52.086;5.240;2023-03-08T07:54:50;44.4;;;32.4;;
50651;SDS011;66928;52.086;5.240;2023-03-08T07:58:02;42.5;;;32.3;;
50651;SDS011;66928;52.086;5.240;2023-03-08T07:59:39;46.4;;;33.8;;
50651;SDS011;66928;52.086;5.240;2023-03-08T08:01:16;43.2;;;32.1;;
50651;SDS011;66928;52.086;5.240;2023-03-08T08:02:52;42.9;;;32.8;;
50651;SDS011;66928;52.086;5.240;2023-03-08T08:06:05;45.3;;;33.1;;
50651;SDS011;66928;52.086;5.240;2023-03-08T08:07:41;45.3;;;33.1;;
50651;SDS011;66928;52.086;5.240;2023-03-08T08:09:20;46.4;;;34.1;;
50651;SDS011;66928;52.086;5.240;2023-03-08T08:12:33;46.8;;;34.21;;
50651;SDS011;66928;52.086;5.240;2023-03-08T08:14:09;45.6;;;34.0;;
50651;SDS011;66928;52.086;5.240;2023-03-08T08:15:45;45.9;;;33.21;;
50651;SDS011;66928;52.086;5.240;2023-03-08T08:18:57;45.9;;;33.21;;
50651;SDS011;66928;52.086;5.240;2023-03-08T08:20:33;48.2;;;33.9;;
50651;SDS011;66928;52.086;5.240;2023-03-08T08:22:09;48.5;;;35.1;;
50651;SDS011;66928;52.086;5.240;2023-03-08T08:23:46;49.4;;;34.81;;
50651;SDS011;66928;52.086;5.240;2023-03-08T08:26:59;52.7;;;35.81;;
50651;SDS011;66928;52.086;5.240;2023-03-08T08:28:35;52.9;;;35.71;;
50651;SDS011;66928;52.086;5.240;2023-03-08T08:30:13;53.4;;;34.9;;
50651;SDS011;66928;52.086;5.240;2023-03-08T08:33:27;53.2;;;36.0;;
50651;SDS011;66928;52.086;5.240;2023-03-08T08:35:04;50.6;;;35.71;;
50651;SDS011;66928;52.086;5.240;2023-03-08T08:36:41;54.4;;;36.6;;
50651;SDS011;66928;52.086;5.240;2023-03-08T08:39:53;57.4;;;37.71;;
50651;SDS011;66928;52.086;5.240;2023-03-08T08:41:29;56.0;;;37.71;;
50651;SDS011;66928;52.086;5.240;2023-03-08T08:43:05;53.9;;;37.6;;
50651;SDS011;66928;52.086;5.240;2023-03-08T08:44:42;58.0;;;38.1;;
50651;SDS011;66928;52.086;5.240;2023-03-08T08:47:54;50.4;;;34.9;;
50651;SDS011;66928;52.086;5.240;2023-03-08T08:49:30;57.4;;;37.81;;
50651;SDS011;66928;52.086;5.240;2023-03-08T08:51:07;55.2;;;37.31;;
50651;SDS011;66928;52.086;5.240;2023-03-08T08:54:22;59.5;;;39.6;;
50651;SDS011;66928;52.086;5.240;2023-03-08T08:56:08;53.4;;;37.4;;
50651;SDS011;66928;52.086;5.240;2023-03-08T08:57:45;56.6;;;37.31;;
50651;SDS011;66928;52.086;5.240;2023-03-08T08:59:21;53.7;;;36.81;;
50651;SDS011;66928;52.086;5.240;2023-03-08T09:02:33;57.3;;;37.5;;
50651;SDS011;66928;52.086;5.240;2023-03-08T09:04:10;56.9;;;37.21;;
50651;SDS011;66928;52.086;5.240;2023-03-08T09:05:46;52.8;;;35.71;;
50651;SDS011;66928;52.086;5.240;2023-03-08T09:08:59;55.2;;;36.6;;
50651;SDS011;66928;52.086;5.240;2023-03-08T09:10:36;52.8;;;36.4;;
50651;SDS011;66928;52.086;5.240;2023-03-08T09:12:14;52.1;;;36.0;;
50651;SDS011;66928;52.086;5.240;2023-03-08T09:15:27;52.3;;;35.0;;
50651;SDS011;66928;52.086;5.240;2023-03-08T09:17:04;51.7;;;34.71;;
50651;SDS011;66928;52.086;5.240;2023-03-08T09:18:41;52.5;;;37.0;;
50651;SDS011;66928;52.086;5.240;2023-03-08T09:20:17;54.5;;;36.31;;
50651;SDS011;66928;52.086;5.240;2023-03-08T09:23:30;51.7;;;35.31;;
50651;SDS011;66928;52.086;5.240;2023-03-08T09:25:07;57.2;;;36.31;;
50651;SDS011;66928;52.086;5.240;2023-03-08T09:26:45;55.3;;;36.21;;
50651;SDS011;66928;52.086;5.240;2023-03-08T09:29:58;54.4;;;36.71;;
50651;SDS011;66928;52.086;5.240;2023-03-08T09:31:35;55.9;;;36.6;;
50651;SDS011;66928;52.086;5.240;2023-03-08T09:33:13;55.7;;;36.1;;
50651;SDS011;66928;52.086;5.240;2023-03-08T09:34:49;50.3;;;34.31;;
50651;SDS011;66928;52.086;5.240;2023-03-08T09:38:01;53.3;;;35.31;;
50651;SDS011;66928;52.086;5.240;2023-03-08T09:39:38;51.4;;;34.4;;
50651;SDS011;66928;52.086;5.240;2023-03-08T09:41:20;51.7;;;34.71;;
50651;SDS011;66928;52.086;5.240;2023-03-08T09:43:56;55.3;;;35.21;;
50651;SDS011;66928;52.086;5.240;2023-03-08T09:45:50;54.9;;;35.6;;
50651;SDS011;66928;52.086;5.240;2023-03-08T09:47:29;53.8;;;34.71;;
50651;SDS011;66928;52.086;5.240;2023-03-08T09:50:54;56.0;;;35.71;;
50651;SDS011;66928;52.086;5.240;2023-03-08T09:52:34;53.7;;;34.81;;
50651;SDS011;66928;52.086;5.240;2023-03-08T09:54:15;51.6;;;34.81;;
50651;SDS011;66928;52.086;5.240;2023-03-08T09:55:56;51.4;;;33.9;;
50651;SDS011;66928;52.086;5.240;2023-03-08T09:59:22;51.8;;;34.31;;
50651;SDS011;66928;52.086;5.240;2023-03-08T10:01:11;54.4;;;35.81;;
50651;SDS011;66928;52.086;5.240;2023-03-08T10:03:12;51.5;;;34.71;;
50651;SDS011;66928;52.086;5.240;2023-03-08T10:05:02;50.2;;;33.6;;
50651;SDS011;66928;52.086;5.240;2023-03-08T10:06:46;49.2;;;32.21;;
50651;SDS011;66928;52.086;5.240;2023-03-08T10:08:32;46.8;;;31.8;;
50651;SDS011;66928;52.086;5.240;2023-03-08T10:12:09;44.9;;;30.6;;
50651;SDS011;66928;52.086;5.240;2023-03-08T10:13:55;48.3;;;33.71;;
50651;SDS011;66928;52.086;5.240;2023-03-08T10:15:37;47.3;;;31.8;;
50651;SDS011;66928;52.086;5.240;2023-03-08T10:17:18;48.0;;;32.4;;
50651;SDS011;66928;52.086;5.240;2023-03-08T10:18:57;41.9;;;29.3;;
50651;SDS011;66928;52.086;5.240;2023-03-08T10:22:19;44.4;;;29.6;;
50651;SDS011;66928;52.086;5.240;2023-03-08T10:24:03;41.2;;;28.5;;
50651;SDS011;66928;52.086;5.240;2023-03-08T10:25:53;39.31;;;27.8;;
50651;SDS011;66928;52.086;5.240;2023-03-08T10:27:31;39.81;;;28.3;;
50651;SDS011;66928;52.086;5.240;2023-03-08T10:30:48;39.6;;;28.2;;
50651;SDS011;66928;52.086;5.240;2023-03-08T10:32:26;39.4;;;27.4;;
50651;SDS011;66928;52.086;5.240;2023-03-08T10:34:08;37.71;;;26.8;;
50651;SDS011;66928;52.086;5.240;2023-03-08T10:35:52;36.81;;;26.6;;
50651;SDS011;66928;52.086;5.240;2023-03-08T10:39:09;39.4;;;27.0;;
50651;SDS011;66928;52.086;5.240;2023-03-08T10:40:45;36.4;;;26.3;;
50651;SDS011;66928;52.086;5.240;2023-03-08T10:42:22;34.6;;;26.0;;
50651;SDS011;66928;52.086;5.240;2023-03-08T10:44:03;35.9;;;25.8;;
50651;SDS011;66928;52.086;5.240;2023-03-08T10:47:17;34.21;;;25.4;;
50651;SDS011;66928;52.086;5.240;2023-03-08T10:49:04;34.6;;;25.7;;
50651;SDS011;66928;52.086;5.240;2023-03-08T10:50:42;32.9;;;23.9;;
50651;SDS011;66928;52.086;5.240;2023-03-08T10:52:20;33.71;;;25.2;;
50651;SDS011;66928;52.086;5.240;2023-03-08T10:55:42;31.2;;;23.7;;
50651;SDS011;66928;52.086;5.240;2023-03-08T10:57:22;32.3;;;24.2;;
50651;SDS011;66928;52.086;5.240;2023-03-08T10:58:58;33.9;;;24.7;;
50651;SDS011;66928;52.086;5.240;2023-03-08T11:00:36;32.1;;;23.6;;
50651;SDS011;66928;52.086;5.240;2023-03-08T11:03:57;32.3;;;24.3;;
50651;SDS011;66928;52.086;5.240;2023-03-08T11:05:35;33.4;;;25.0;;
50651;SDS011;66928;52.086;5.240;2023-03-08T11:07:15;31.4;;;23.4;;
50651;SDS011;66928;52.086;5.240;2023-03-08T11:08:57;30.9;;;23.7;;
50651;SDS011;66928;52.086;5.240;2023-03-08T11:12:20;31.0;;;24.0;;
50651;SDS011;66928;52.086;5.240;2023-03-08T11:13:58;31.4;;;24.0;;
50651;SDS011;66928;52.086;5.240;2023-03-08T11:15:36;35.21;;;25.7;;
50651;SDS011;66928;52.086;5.240;2023-03-08T11:19:02;31.3;;;23.0;;
50651;SDS011;66928;52.086;5.240;2023-03-08T11:20:49;28.7;;;21.9;;
50651;SDS011;66928;52.086;5.240;2023-03-08T11:22:37;29.0;;;21.8;;
50651;SDS011;66928;52.086;5.240;2023-03-08T11:25:27;32.1;;;22.4;;
50651;SDS011;66928;52.086;5.240;2023-03-08T11:27:23;28.9;;;22.3;;
50651;SDS011;66928;52.086;5.240;2023-03-08T11:29:16;30.3;;;22.9;;
50651;SDS011;66928;52.086;5.240;2023-03-08T11:31:09;29.1;;;22.2;;
50651;SDS011;66928;52.086;5.240;2023-03-08T11:33:02;29.2;;;22.6;;
50651;SDS011;66928;52.086;5.240;2023-03-08T11:35:06;31.2;;;23.5;;
50651;SDS011;66928;52.086;5.240;2023-03-08T11:36:50;31.0;;;22.7;;
50651;SDS011;66928;52.086;5.240;2023-03-08T11:38:37;29.3;;;22.5;;
50651;SDS011;66928;52.086;5.240;2023-03-08T11:42:01;29.4;;;21.8;;
50651;SDS011;66928;52.086;5.240;2023-03-08T11:43:49;28.7;;;21.6;;
50651;SDS011;66928;52.086;5.240;2023-03-08T11:45:44;29.1;;;21.4;;
50651;SDS011;66928;52.086;5.240;2023-03-08T11:47:37;24.7;;;19.3;;
50651;SDS011;66928;52.086;5.240;2023-03-08T11:50:51;28.4;;;20.5;;
50651;SDS011;66928;52.086;5.240;2023-03-08T11:54:25;27.7;;;20.11;;
50651;SDS011;66928;52.086;5.240;2023-03-08T11:56:22;26.2;;;19.61;;
50651;SDS011;66928;52.086;5.240;2023-03-08T11:58:33;28.1;;;20.2;;
50651;SDS011;66928;52.086;5.240;2023-03-08T12:00:15;28.5;;;20.11;;
50651;SDS011;66928;52.086;5.240;2023-03-08T12:02:00;25.1;;;19.41;;
50651;SDS011;66928;52.086;5.240;2023-03-08T12:03:46;24.9;;;18.5;;
50651;SDS011;66928;52.086;5.240;2023-03-08T12:05:27;25.9;;;19.0;;
50651;SDS011;66928;52.086;5.240;2023-03-08T12:08:52;24.5;;;17.91;;
50651;SDS011;66928;52.086;5.240;2023-03-08T12:10:34;24.8;;;17.91;;
50651;SDS011;66928;52.086;5.240;2023-03-08T12:12:19;24.9;;;18.0;;
50651;SDS011;66928;52.086;5.240;2023-03-08T12:14:03;23.4;;;17.5;;
50651;SDS011;66928;52.086;5.240;2023-03-08T12:17:31;24.8;;;17.91;;
50651;SDS011;66928;52.086;5.240;2023-03-08T12:19:14;22.7;;;17.41;;
50651;SDS011;66928;52.086;5.240;2023-03-08T12:21:06;23.3;;;18.11;;
50651;SDS011;66928;52.086;5.240;2023-03-08T12:22:59;25.6;;;19.11;;
50651;SDS011;66928;52.086;5.240;2023-03-08T12:24:47;22.0;;;16.61;;
50651;SDS011;66928;52.086;5.240;2023-03-08T12:26:32;24.7;;;17.7;;
50651;SDS011;66928;52.086;5.240;2023-03-08T12:29:57;24.8;;;18.0;;
50651;SDS011;66928;52.086;5.240;2023-03-08T12:31:40;24.5;;;17.41;;
50651;SDS011;66928;52.086;5.240;2023-03-08T12:33:21;24.9;;;17.2;;
50651;SDS011;66928;52.086;5.240;2023-03-08T12:34:59;21.4;;;16.5;;
50651;SDS011;66928;52.086;5.240;2023-03-08T12:38:34;23.2;;;17.0;;
50651;SDS011;66928;52.086;5.240;2023-03-08T12:40:26;20.6;;;15.2;;
50651;SDS011;66928;52.086;5.240;2023-03-08T12:43:15;21.2;;;16.0;;
50651;SDS011;66928;52.086;5.240;2023-03-08T12:54:15;22.1;;;15.7;;
50651;SDS011;66928;52.086;5.240;2023-03-08T12:55:58;21.3;;;15.2;;
50651;SDS011;66928;52.086;5.240;2023-03-08T12:59:28;22.4;;;16.7;;
50651;SDS011;66928;52.086;5.240;2023-03-08T13:01:28;22.5;;;16.5;;
50651;SDS011;66928;52.086;5.240;2023-03-08T13:03:26;23.6;;;16.11;;
50651;SDS011;66928;52.086;5.240;2023-03-08T13:05:17;20.6;;;14.8;;
50651;SDS011;66928;52.086;5.240;2023-03-08T13:07:07;20.11;;;15.1;;
50651;SDS011;66928;52.086;5.240;2023-03-08T13:08:55;21.6;;;15.8;;
50651;SDS011;66928;52.086;5.240;2023-03-08T13:10:35;21.7;;;15.9;;
50651;SDS011;66928;52.086;5.240;2023-03-08T13:14:23;20.9;;;15.6;;
50651;SDS011;66928;52.086;5.240;2023-03-08T13:16:04;22.0;;;15.9;;
50651;SDS011;66928;52.086;5.240;2023-03-08T13:17:57;20.8;;;15.7;;
50651;SDS011;66928;52.086;5.240;2023-03-08T13:19:35;21.7;;;16.4;;
50651;SDS011;66928;52.086;5.240;2023-03-08T13:21:15;21.1;;;15.7;;
50651;SDS011;66928;52.086;5.240;2023-03-08T13:23:01;22.8;;;16.2;;
50651;SDS011;66928;52.086;5.240;2023-03-08T13:26:58;22.0;;;16.3;;
50651;SDS011;66928;52.086;5.240;2023-03-08T13:28:47;24.4;;;17.5;;
50651;SDS011;66928;52.086;5.240;2023-03-08T13:30:27;25.8;;;17.3;;
50651;SDS011;66928;52.086;5.240;2023-03-08T13:32:10;22.2;;;16.3;;
50651;SDS011;66928;52.086;5.240;2023-03-08T13:33:50;21.7;;;16.9;;
50651;SDS011;66928;52.086;5.240;2023-03-08T13:35:30;23.0;;;16.7;;
50651;SDS011;66928;52.086;5.240;2023-03-08T13:38:56;22.4;;;17.11;;
50651;SDS011;66928;52.086;5.240;2023-03-08T13:40:35;23.4;;;17.41;;
50651;SDS011;66928;52.086;5.240;2023-03-08T13:42:11;23.4;;;17.2;;
50651;SDS011;66928;52.086;5.240;2023-03-08T13:43:47;24.3;;;17.61;;
50651;SDS011;66928;52.086;5.240;2023-03-08T13:47:15;22.1;;;17.2;;
50651;SDS011;66928;52.086;5.240;2023-03-08T13:48:57;24.4;;;17.91;;
50651;SDS011;66928;52.086;5.240;2023-03-08T13:50:36;24.1;;;17.91;;
50651;SDS011;66928;52.086;5.240;2023-03-08T13:52:18;26.0;;;17.61;;
50651;SDS011;66928;52.086;5.240;2023-03-08T13:55:35;24.0;;;18.2;;
50651;SDS011;66928;52.086;5.240;2023-03-08T13:57:17;27.1;;;18.3;;
50651;SDS011;66928;52.086;5.240;2023-03-08T13:58:57;23.3;;;18.0;;
50651;SDS011;66928;52.086;5.240;2023-03-08T14:00:35;23.6;;;18.3;;
50651;SDS011;66928;52.086;5.240;2023-03-08T14:03:55;24.1;;;18.2;;
50651;SDS011;66928;52.086;5.240;2023-03-08T14:05:32;26.7;;;19.61;;
50651;SDS011;66928;52.086;5.240;2023-03-08T14:07:19;25.2;;;19.41;;
50651;SDS011;66928;52.086;5.240;2023-03-08T14:08:58;26.6;;;19.61;;
50651;SDS011;66928;52.086;5.240;2023-03-08T14:12:16;25.5;;;18.5;;
50651;SDS011;66928;52.086;5.240;2023-03-08T14:13:54;25.7;;;19.11;;
50651;SDS011;66928;52.086;5.240;2023-03-08T14:15:33;24.3;;;18.61;;
50651;SDS011;66928;52.086;5.240;2023-03-08T14:18:56;25.7;;;19.8;;
50651;SDS011;66928;52.086;5.240;2023-03-08T14:20:34;27.5;;;20.2;;
50651;SDS011;66928;52.086;5.240;2023-03-08T14:22:10;28.3;;;21.0;;
50651;SDS011;66928;52.086;5.240;2023-03-08T14:23:50;26.1;;;20.11;;
50651;SDS011;66928;52.086;5.240;2023-03-08T14:27:23;27.9;;;20.41;;
50651;SDS011;66928;52.086;5.240;2023-03-08T14:29:15;29.1;;;21.3;;
50651;SDS011;66928;52.086;5.240;2023-03-08T14:30:54;28.5;;;21.1;;
50651;SDS011;66928;52.086;5.240;2023-03-08T14:32:30;29.2;;;21.2;;
50651;SDS011;66928;52.086;5.240;2023-03-08T14:34:16;31.4;;;22.4;;
50651;SDS011;66928;52.086;5.240;2023-03-08T14:37:33;29.0;;;21.9;;
50651;SDS011;66928;52.086;5.240;2023-03-08T14:39:15;30.0;;;22.8;;
50651;SDS011;66928;52.086;5.240;2023-03-08T14:40:52;30.8;;;22.3;;
50651;SDS011;66928;52.086;5.240;2023-03-08T14:42:31;28.7;;;22.1;;
50651;SDS011;66928;52.086;5.240;2023-03-08T14:45:57;31.2;;;22.3;;
50651;SDS011;66928;52.086;5.240;2023-03-08T14:47:36;31.0;;;23.0;;
50651;SDS011;66928;52.086;5.240;2023-03-08T14:49:20;31.7;;;22.9;;
50651;SDS011;66928;52.086;5.240;2023-03-08T14:50:58;30.0;;;22.9;;
50651;SDS011;66928;52.086;5.240;2023-03-08T14:54:21;35.1;;;24.9;;
50651;SDS011;66928;52.086;5.240;2023-03-08T14:56:06;36.1;;;25.5;;
50651;SDS011;66928;52.086;5.240;2023-03-08T14:57:47;36.6;;;26.4;;
50651;SDS011;66928;52.086;5.240;2023-03-08T14:59:24;35.81;;;26.5;;
50651;SDS011;66928;52.086;5.240;2023-03-08T15:02:37;36.5;;;26.4;;
50651;SDS011;66928;52.086;5.240;2023-03-08T15:04:14;39.4;;;27.6;;
50651;SDS011;66928;52.086;5.240;2023-03-08T15:05:54;39.9;;;27.6;;
50651;SDS011;66928;52.086;5.240;2023-03-08T15:07:31;37.31;;;26.5;;
50651;SDS011;66928;52.086;5.240;2023-03-08T15:10:49;37.71;;;26.8;;
50651;SDS011;66928;52.086;5.240;2023-03-08T15:12:26;35.21;;;25.1;;
50651;SDS011;66928;52.086;5.240;2023-03-08T15:14:02;39.1;;;26.4;;
50651;SDS011;66928;52.086;5.240;2023-03-08T15:17:17;35.71;;;26.3;;
50651;SDS011;66928;52.086;5.240;2023-03-08T15:18:53;37.9;;;26.4;;
50651;SDS011;66928;52.086;5.240;2023-03-08T15:20:29;34.9;;;25.2;;
50651;SDS011;66928;52.086;5.240;2023-03-08T15:22:05;35.9;;;26.5;;
50651;SDS011;66928;52.086;5.240;2023-03-08T15:25:18;35.21;;;25.8;;
50651;SDS011;66928;52.086;5.240;2023-03-08T15:27:01;32.21;;;23.6;;
50651;SDS011;66928;52.086;5.240;2023-03-08T15:28:37;35.6;;;23.7;;
50651;SDS011;66928;52.086;5.240;2023-03-08T15:31:53;34.81;;;24.1;;
50651;SDS011;66928;52.086;5.240;2023-03-08T15:33:30;31.5;;;23.7;;
50651;SDS011;66928;52.086;5.240;2023-03-08T15:35:07;30.6;;;22.8;;
50651;SDS011;66928;52.086;5.240;2023-03-08T15:36:43;29.8;;;23.0;;
50651;SDS011;66928;52.086;5.240;2023-03-08T15:39:56;33.8;;;23.2;;
50651;SDS011;66928;52.086;5.240;2023-03-08T15:41:32;31.5;;;22.7;;
50651;SDS011;66928;52.086;5.240;2023-03-08T15:43:08;30.9;;;21.9;;
50651;SDS011;66928;52.086;5.240;2023-03-08T15:46:21;28.8;;;21.2;;
50651;SDS011;66928;52.086;5.240;2023-03-08T15:47:58;29.7;;;21.6;;
50651;SDS011;66928;52.086;5.240;2023-03-08T15:49:36;29.0;;;20.9;;
50651;SDS011;66928;52.086;5.240;2023-03-08T15:52:52;28.2;;;20.8;;
50651;SDS011;66928;52.086;5.240;2023-03-08T15:54:29;25.1;;;18.91;;
50651;SDS011;66928;52.086;5.240;2023-03-08T15:56:05;26.6;;;19.41;;
50651;SDS011;66928;52.086;5.240;2023-03-08T15:57:42;25.2;;;18.7;;
50651;SDS011;66928;52.086;5.240;2023-03-08T16:00:54;23.6;;;17.41;;
50651;SDS011;66928;52.086;5.240;2023-03-08T16:02:30;22.6;;;17.3;;
50651;SDS011;66928;52.086;5.240;2023-03-08T16:04:06;23.1;;;16.8;;
50651;SDS011;66928;52.086;5.240;2023-03-08T16:07:18;21.4;;;16.0;;
50651;SDS011;66928;52.086;5.240;2023-03-08T16:08:55;21.2;;;15.5;;
50651;SDS011;66928;52.086;5.240;2023-03-08T16:10:32;21.1;;;16.2;;
50651;SDS011;66928;52.086;5.240;2023-03-08T16:13:48;22.0;;;15.6;;
50651;SDS011;66928;52.086;5.240;2023-03-08T16:15:27;17.91;;;14.5;;
50651;SDS011;66928;52.086;5.240;2023-03-08T16:17:04;20.9;;;15.2;;
50651;SDS011;66928;52.086;5.240;2023-03-08T16:18:40;18.7;;;14.9;;
50651;SDS011;66928;52.086;5.240;2023-03-08T16:21:53;18.8;;;14.8;;
50651;SDS011;66928;52.086;5.240;2023-03-08T16:23:29;20.41;;;15.6;;
50651;SDS011;66928;52.086;5.240;2023-03-08T16:25:05;19.2;;;15.4;;
50651;SDS011;66928;52.086;5.240;2023-03-08T16:28:20;19.3;;;15.3;;
50651;SDS011;66928;52.086;5.240;2023-03-08T16:29:57;19.0;;;16.0;;
50651;SDS011;66928;52.086;5.240;2023-03-08T16:31:33;19.8;;;14.9;;
50651;SDS011;66928;52.086;5.240;2023-03-08T16:34:46;20.9;;;15.7;;
50651;SDS011;66928;52.086;5.240;2023-03-08T16:36:22;19.8;;;15.4;;
50651;SDS011;66928;52.086;5.240;2023-03-08T16:37:58;20.11;;;16.3;;
50651;SDS011;66928;52.086;5.240;2023-03-08T16:39:34;20.5;;;15.8;;
50651;SDS011;66928;52.086;5.240;2023-03-08T16:42:48;19.2;;;15.4;;
50651;SDS011;66928;52.086;5.240;2023-03-08T16:44:26;20.5;;;15.9;;
50651;SDS011;66928;52.086;5.240;2023-03-08T16:46:03;22.1;;;16.5;;
50651;SDS011;66928;52.086;5.240;2023-03-08T16:49:15;21.9;;;16.9;;
50651;SDS011;66928;52.086;5.240;2023-03-08T16:50:54;19.3;;;15.2;;
50651;SDS011;66928;52.086;5.240;2023-03-08T16:52:33;19.5;;;15.7;;
50651;SDS011;66928;52.086;5.240;2023-03-08T16:57:22;19.61;;;15.4;;
50651;SDS011;66928;52.086;5.240;2023-03-08T16:58:58;23.0;;;16.2;;
50651;SDS011;66928;52.086;5.240;2023-03-08T17:00:35;21.4;;;16.61;;
50651;SDS011;66928;52.086;5.240;2023-03-08T17:03:50;21.3;;;16.11;;
50651;SDS011;66928;52.086;5.240;2023-03-08T17:05:27;22.8;;;16.9;;
50651;SDS011;66928;52.086;5.240;2023-03-08T17:07:03;22.4;;;16.3;;
50651;SDS011;66928;52.086;5.240;2023-03-08T17:10:16;22.7;;;16.9;;
50651;SDS011;66928;52.086;5.240;2023-03-08T17:11:52;20.5;;;16.9;;
50651;SDS011;66928;52.086;5.240;2023-03-08T17:13:29;21.1;;;16.9;;
50651;SDS011;66928;52.086;5.240;2023-03-08T17:15:06;22.9;;;17.41;;
50651;SDS011;66928;52.086;5.240;2023-03-08T17:18:19;20.8;;;17.2;;
50651;SDS011;66928;52.086;5.240;2023-03-08T17:19:55;26.2;;;18.91;;
50651;SDS011;66928;52.086;5.240;2023-03-08T17:21:32;23.7;;;17.61;;
50651;SDS011;66928;52.086;5.240;2023-03-08T17:24:47;23.6;;;18.0;;
50651;SDS011;66928;52.086;5.240;2023-03-08T17:26:23;23.2;;;17.8;;
50651;SDS011;66928;52.086;5.240;2023-03-08T17:28:00;23.2;;;17.8;;
50651;SDS011;66928;52.086;5.240;2023-03-08T17:31:14;23.3;;;18.91;;
50651;SDS011;66928;52.086;5.240;2023-03-08T17:32:53;26.5;;;20.0;;
50651;SDS011;66928;52.086;5.240;2023-03-08T17:34:30;26.2;;;19.2;;
50651;SDS011;66928;52.086;5.240;2023-03-08T17:36:06;25.5;;;19.11;;
50651;SDS011;66928;52.086;5.240;2023-03-08T17:39:20;24.1;;;19.2;;
50651;SDS011;66928;52.086;5.240;2023-03-08T17:40:56;23.0;;;18.41;;
50651;SDS011;66928;52.086;5.240;2023-03-08T17:42:33;25.0;;;19.3;;
50651;SDS011;66928;52.086;5.240;2023-03-08T17:45:54;26.2;;;19.8;;
50651;SDS011;66928;52.086;5.240;2023-03-08T17:47:33;26.0;;;20.41;;
50651;SDS011;66928;52.086;5.240;2023-03-08T17:49:09;25.9;;;19.8;;
50651;SDS011;66928;52.086;5.240;2023-03-08T17:50:45;27.5;;;21.3;;
50651;SDS011;66928;52.086;5.240;2023-03-08T17:53:58;28.1;;;22.0;;
50651;SDS011;66928;52.086;5.240;2023-03-08T17:55:35;27.1;;;21.3;;
50651;SDS011;66928;52.086;5.240;2023-03-08T17:57:15;26.0;;;20.3;;
50651;SDS011;66928;52.086;5.240;2023-03-08T18:00:29;25.0;;;20.11;;
50651;SDS011;66928;52.086;5.240;2023-03-08T18:02:05;27.0;;;20.7;;
50651;SDS011;66928;52.086;5.240;2023-03-08T18:03:41;29.4;;;21.8;;
50651;SDS011;66928;52.086;5.240;2023-03-08T18:05:18;29.8;;;21.8;;
50651;SDS011;66928;52.086;5.240;2023-03-08T18:08:31;27.1;;;21.4;;
50651;SDS011;66928;52.086;5.240;2023-03-08T18:10:09;31.1;;;23.1;;
50651;SDS011;66928;52.086;5.240;2023-03-08T18:11:47;31.6;;;23.3;;
50651;SDS011;66928;52.086;5.240;2023-03-08T18:14:59;31.7;;;23.7;;
50651;SDS011;66928;52.086;5.240;2023-03-08T18:16:36;28.6;;;21.8;;
50651;SDS011;66928;52.086;5.240;2023-03-08T18:18:13;30.5;;;23.5;;
50651;SDS011;66928;52.086;5.240;2023-03-08T18:21:25;30.2;;;23.1;;
50651;SDS011;66928;52.086;5.240;2023-03-08T18:23:04;32.1;;;24.0;;
50651;SDS011;66928;52.086;5.240;2023-03-08T18:24:41;31.8;;;23.8;;
50651;SDS011;66928;52.086;5.240;2023-03-08T18:26:17;30.6;;;24.0;;
50651;SDS011;66928;52.086;5.240;2023-03-08T18:29:30;31.2;;;24.2;;
50651;SDS011;66928;52.086;5.240;2023-03-08T18:31:07;32.3;;;23.7;;
50651;SDS011;66928;52.086;5.240;2023-03-08T18:32:47;35.6;;;25.4;;
50651;SDS011;66928;52.086;5.240;2023-03-08T18:36:01;37.31;;;26.3;;
50651;SDS011;66928;52.086;5.240;2023-03-08T18:39:14;34.21;;;25.7;;
50651;SDS011;66928;52.086;5.240;2023-03-08T18:40:51;32.4;;;24.6;;
50651;SDS011;66928;52.086;5.240;2023-03-08T18:44:04;34.81;;;25.8;;
50651;SDS011;66928;52.086;5.240;2023-03-08T18:45:47;34.9;;;26.1;;
50651;SDS011;66928;52.086;5.240;2023-03-08T18:47:24;34.21;;;24.6;;
50651;SDS011;66928;52.086;5.240;2023-03-08T18:50:38;33.4;;;25.0;;
50651;SDS011;66928;52.086;5.240;2023-03-08T18:52:15;35.71;;;26.6;;
50651;SDS011;66928;52.086;5.240;2023-03-08T18:53:52;36.81;;;26.8;;
50651;SDS011;66928;52.086;5.240;2023-03-08T18:55:28;35.4;;;25.5;;
50651;SDS011;66928;52.086;5.240;2023-03-08T18:58:40;39.0;;;27.6;;
50651;SDS011;66928;52.086;5.240;2023-03-08T19:00:17;36.6;;;26.9;;
50651;SDS011;66928;52.086;5.240;2023-03-08T19:01:53;37.0;;;26.9;;
50651;SDS011;66928;52.086;5.240;2023-03-08T19:05:06;34.5;;;25.5;;
50651;SDS011;66928;52.086;5.240;2023-03-08T19:06:43;35.5;;;25.9;;
50651;SDS011;66928;52.086;5.240;2023-03-08T19:08:19;35.0;;;24.9;;
50651;SDS011;66928;52.086;5.240;2023-03-08T19:11:32;36.21;;;25.5;;
50651;SDS011;66928;52.086;5.240;2023-03-08T19:13:08;36.71;;;26.8;;
50651;SDS011;66928;52.086;5.240;2023-03-08T19:14:44;34.71;;;25.7;;